sensor_id;sensor_type;location;lat;lon;timestamp;temperature;humidity
38090;DHT22;23904;52.322;10.232;2023-04-09T00:01:10;6.00;99.90
38090;DHT22;23904;52.322;10.232;2023-04-09T00:03:37;6.00;99.90
38090;DHT22;23904;52.322;10.232;2023-04-09T00:06:05;6.00;99.90
38090;DHT22;23904;52.322;10.232;2023-04-09T00:08:30;6.00;99.90
38090;DHT22;23904;52.322;10.232;2023-04-09T00:10:57;6.00;99.90
38090;DHT22;23904;52.322;10.232;2023-04-09T00:13:23;6.00;99.90
38090;DHT22;23904;52.322;10.232;2023-04-09T00:15:49;6.00;99.90
38090;DHT22;23904;52.322;10.232;2023-04-09T00:18:15;6.00;99.90
38090;DHT22;23904;52.322;10.232;2023-04-09T00:20:42;6.00;99.90
38090;DHT22;23904;52.322;10.232;2023-04-09T00:23:08;6.00;99.90
38090;DHT22;23904;52.322;10.232;2023-04-09T00:25:34;6.00;99.90
38090;DHT22;23904;52.322;10.232;2023-04-09T00:28:00;6.00;99.90
38090;DHT22;23904;52.322;10.232;2023-04-09T00:30:29;6.00;99.90
38090;DHT22;23904;52.322;10.232;2023-04-09T00:32:56;5.90;99.90
38090;DHT22;23904;52.322;10.232;2023-04-09T00:35:21;5.90;99.90
38090;DHT22;23904;52.322;10.232;2023-04-09T00:37:47;5.80;99.90
38090;DHT22;23904;52.322;10.232;2023-04-09T00:40:13;5.80;99.90
38090;DHT22;23904;52.322;10.232;2023-04-09T00:42:39;5.80;99.90
38090;DHT22;23904;52.322;10.232;2023-04-09T00:45:06;5.80;99.90
38090;DHT22;23904;52.322;10.232;2023-04-09T00:47:34;5.80;99.90
38090;DHT22;23904;52.322;10.232;2023-04-09T00:50:01;5.80;99.90
38090;DHT22;23904;52.322;10.232;2023-04-09T00:52:27;5.70;99.90
38090;DHT22;23904;52.322;10.232;2023-04-09T00:54:58;5.70;99.90
38090;DHT22;23904;52.322;10.232;2023-04-09T00:57:25;5.70;99.90
38090;DHT22;23904;52.322;10.232;2023-04-09T00:59:51;5.80;99.90
38090;DHT22;23904;52.322;10.232;2023-04-09T01:02:16;5.70;99.90
38090;DHT22;23904;52.322;10.232;2023-04-09T01:04:43;5.60;99.90
38090;DHT22;23904;52.322;10.232;2023-04-09T01:13:15;5.60;99.90
38090;DHT22;23904;52.322;10.232;2023-04-09T01:15:53;5.60;99.90
38090;DHT22;23904;52.322;10.232;2023-04-09T01:18:39;5.60;99.90
38090;DHT22;23904;52.322;10.232;2023-04-09T01:21:12;5.50;99.90
38090;DHT22;23904;52.322;10.232;2023-04-09T01:26:53;5.40;99.90
38090;DHT22;23904;52.322;10.232;2023-04-09T01:29:30;5.40;99.90
38090;DHT22;23904;52.322;10.232;2023-04-09T01:31:58;5.40;99.90
38090;DHT22;23904;52.322;10.232;2023-04-09T01:34:26;5.40;99.90
38090;DHT22;23904;52.322;10.232;2023-04-09T01:36:56;5.30;99.90
38090;DHT22;23904;52.322;10.232;2023-04-09T01:39:24;5.30;99.90
38090;DHT22;23904;52.322;10.232;2023-04-09T01:41:50;5.20;99.90
38090;DHT22;23904;52.322;10.232;2023-04-09T01:44:17;5.20;99.90
38090;DHT22;23904;52.322;10.232;2023-04-09T01:46:45;5.20;99.90
38090;DHT22;23904;52.322;10.232;2023-04-09T01:49:11;5.20;99.90
38090;DHT22;23904;52.322;10.232;2023-04-09T01:51:37;5.10;99.90
38090;DHT22;23904;52.322;10.232;2023-04-09T01:54:04;5.20;99.90
38090;DHT22;23904;52.322;10.232;2023-04-09T01:56:46;5.30;99.90
38090;DHT22;23904;52.322;10.232;2023-04-09T01:59:12;5.10;99.90
38090;DHT22;23904;52.322;10.232;2023-04-09T02:01:44;5.00;99.90
38090;DHT22;23904;52.322;10.232;2023-04-09T02:04:22;5.10;99.90
38090;DHT22;23904;52.322;10.232;2023-04-09T02:09:52;4.80;99.90
38090;DHT22;23904;52.322;10.232;2023-04-09T02:12:18;4.90;99.90
38090;DHT22;23904;52.322;10.232;2023-04-09T02:14:50;4.90;99.90
38090;DHT22;23904;52.322;10.232;2023-04-09T02:17:17;4.90;99.90
38090;DHT22;23904;52.322;10.232;2023-04-09T02:19:45;4.90;99.90
38090;DHT22;23904;52.322;10.232;2023-04-09T02:22:12;4.90;99.90
38090;DHT22;23904;52.322;10.232;2023-04-09T02:24:38;5.00;99.90
38090;DHT22;23904;52.322;10.232;2023-04-09T02:27:05;5.00;99.90
38090;DHT22;23904;52.322;10.232;2023-04-09T02:29:31;4.90;99.90
38090;DHT22;23904;52.322;10.232;2023-04-09T02:31:57;4.80;99.90
38090;DHT22;23904;52.322;10.232;2023-04-09T02:34:23;4.90;99.90
38090;DHT22;23904;52.322;10.232;2023-04-09T02:36:48;4.90;99.90
38090;DHT22;23904;52.322;10.232;2023-04-09T02:39:14;4.90;99.90
38090;DHT22;23904;52.322;10.232;2023-04-09T02:41:40;4.90;99.90
38090;DHT22;23904;52.322;10.232;2023-04-09T02:44:06;4.80;99.90
38090;DHT22;23904;52.322;10.232;2023-04-09T02:46:31;4.70;99.90
38090;DHT22;23904;52.322;10.232;2023-04-09T02:48:57;4.70;99.90
38090;DHT22;23904;52.322;10.232;2023-04-09T02:51:23;4.70;99.90
38090;DHT22;23904;52.322;10.232;2023-04-09T02:53:48;4.70;99.90
38090;DHT22;23904;52.322;10.232;2023-04-09T02:56:14;4.80;99.90
38090;DHT22;23904;52.322;10.232;2023-04-09T02:58:40;4.70;99.90
38090;DHT22;23904;52.322;10.232;2023-04-09T03:01:05;4.90;99.90
38090;DHT22;23904;52.322;10.232;2023-04-09T03:03:31;4.80;99.90
38090;DHT22;23904;52.322;10.232;2023-04-09T03:05:57;4.70;99.90
38090;DHT22;23904;52.322;10.232;2023-04-09T03:08:22;4.70;99.90
38090;DHT22;23904;52.322;10.232;2023-04-09T03:10:48;4.70;99.90
38090;DHT22;23904;52.322;10.232;2023-04-09T03:13:14;4.70;99.90
38090;DHT22;23904;52.322;10.232;2023-04-09T03:15:40;4.60;99.90
38090;DHT22;23904;52.322;10.232;2023-04-09T03:18:06;4.50;99.90
38090;DHT22;23904;52.322;10.232;2023-04-09T03:20:31;4.50;99.90
38090;DHT22;23904;52.322;10.232;2023-04-09T03:22:57;4.40;99.90
38090;DHT22;23904;52.322;10.232;2023-04-09T03:25:22;4.50;99.90
38090;DHT22;23904;52.322;10.232;2023-04-09T03:27:48;4.50;99.90
38090;DHT22;23904;52.322;10.232;2023-04-09T03:30:13;4.40;99.90
38090;DHT22;23904;52.322;10.232;2023-04-09T03:32:39;4.40;99.90
38090;DHT22;23904;52.322;10.232;2023-04-09T03:35:05;4.50;99.90
38090;DHT22;23904;52.322;10.232;2023-04-09T03:37:31;4.70;99.90
38090;DHT22;23904;52.322;10.232;2023-04-09T03:39:56;4.60;99.90
38090;DHT22;23904;52.322;10.232;2023-04-09T03:42:22;4.50;99.90
38090;DHT22;23904;52.322;10.232;2023-04-09T03:44:48;4.40;99.90
38090;DHT22;23904;52.322;10.232;2023-04-09T03:47:13;4.50;99.90
38090;DHT22;23904;52.322;10.232;2023-04-09T03:49:39;4.50;99.90
38090;DHT22;23904;52.322;10.232;2023-04-09T03:52:05;4.60;99.90
38090;DHT22;23904;52.322;10.232;2023-04-09T03:54:31;4.50;99.90
38090;DHT22;23904;52.322;10.232;2023-04-09T03:56:57;4.50;99.90
38090;DHT22;23904;52.322;10.232;2023-04-09T03:59:23;4.50;99.90
38090;DHT22;23904;52.322;10.232;2023-04-09T04:01:48;4.60;99.90
38090;DHT22;23904;52.322;10.232;2023-04-09T04:04:14;4.50;99.90
38090;DHT22;23904;52.322;10.232;2023-04-09T04:06:39;4.50;99.90
38090;DHT22;23904;52.322;10.232;2023-04-09T04:09:05;4.40;99.90
38090;DHT22;23904;52.322;10.232;2023-04-09T04:11:31;4.40;99.90
38090;DHT22;23904;52.322;10.232;2023-04-09T04:13:56;4.50;99.90
38090;DHT22;23904;52.322;10.232;2023-04-09T04:16:22;4.50;99.90
38090;DHT22;23904;52.322;10.232;2023-04-09T04:18:48;4.50;99.90
38090;DHT22;23904;52.322;10.232;2023-04-09T04:21:14;4.40;99.90
38090;DHT22;23904;52.322;10.232;2023-04-09T04:23:40;4.40;99.90
38090;DHT22;23904;52.322;10.232;2023-04-09T04:26:07;4.40;99.90
38090;DHT22;23904;52.322;10.232;2023-04-09T04:28:37;4.40;99.90
38090;DHT22;23904;52.322;10.232;2023-04-09T04:31:07;4.50;99.90
38090;DHT22;23904;52.322;10.232;2023-04-09T04:33:34;4.60;99.90
38090;DHT22;23904;52.322;10.232;2023-04-09T04:36:07;4.50;99.90
38090;DHT22;23904;52.322;10.232;2023-04-09T04:38:34;4.60;99.90
38090;DHT22;23904;52.322;10.232;2023-04-09T04:41:00;4.60;99.90
38090;DHT22;23904;52.322;10.232;2023-04-09T04:43:26;4.70;99.90
38090;DHT22;23904;52.322;10.232;2023-04-09T04:45:52;4.70;99.90
38090;DHT22;23904;52.322;10.232;2023-04-09T04:48:17;4.70;99.90
38090;DHT22;23904;52.322;10.232;2023-04-09T04:50:43;4.70;99.90
38090;DHT22;23904;52.322;10.232;2023-04-09T04:53:09;4.70;99.90
38090;DHT22;23904;52.322;10.232;2023-04-09T04:55:35;4.70;99.90
38090;DHT22;23904;52.322;10.232;2023-04-09T04:58:01;4.70;99.90
38090;DHT22;23904;52.322;10.232;2023-04-09T05:00:27;4.70;99.90
38090;DHT22;23904;52.322;10.232;2023-04-09T05:02:53;4.80;99.90
38090;DHT22;23904;52.322;10.232;2023-04-09T05:05:18;4.70;99.90
38090;DHT22;23904;52.322;10.232;2023-04-09T05:07:44;4.60;99.90
38090;DHT22;23904;52.322;10.232;2023-04-09T05:10:09;4.70;99.90
38090;DHT22;23904;52.322;10.232;2023-04-09T05:12:35;4.70;99.90
38090;DHT22;23904;52.322;10.232;2023-04-09T05:15:00;4.70;99.90
38090;DHT22;23904;52.322;10.232;2023-04-09T05:17:26;4.80;99.90
38090;DHT22;23904;52.322;10.232;2023-04-09T05:19:52;4.90;99.90
38090;DHT22;23904;52.322;10.232;2023-04-09T05:22:19;4.90;99.90
38090;DHT22;23904;52.322;10.232;2023-04-09T05:24:45;4.90;99.90
38090;DHT22;23904;52.322;10.232;2023-04-09T05:27:10;5.00;99.90
38090;DHT22;23904;52.322;10.232;2023-04-09T05:29:36;5.10;99.90
38090;DHT22;23904;52.322;10.232;2023-04-09T05:32:02;5.10;99.90
38090;DHT22;23904;52.322;10.232;2023-04-09T05:34:28;5.10;99.90
38090;DHT22;23904;52.322;10.232;2023-04-09T05:36:53;5.10;99.90
38090;DHT22;23904;52.322;10.232;2023-04-09T05:39:19;5.10;99.90
38090;DHT22;23904;52.322;10.232;2023-04-09T05:41:45;5.20;99.90
38090;DHT22;23904;52.322;10.232;2023-04-09T05:44:11;5.30;99.90
38090;DHT22;23904;52.322;10.232;2023-04-09T05:46:37;5.30;99.90
38090;DHT22;23904;52.322;10.232;2023-04-09T05:49:03;5.30;99.90
38090;DHT22;23904;52.322;10.232;2023-04-09T05:51:29;5.30;99.90
38090;DHT22;23904;52.322;10.232;2023-04-09T05:53:55;5.40;99.90
38090;DHT22;23904;52.322;10.232;2023-04-09T05:56:20;5.40;99.90
38090;DHT22;23904;52.322;10.232;2023-04-09T05:58:49;5.50;99.90
38090;DHT22;23904;52.322;10.232;2023-04-09T06:01:15;5.60;99.90
38090;DHT22;23904;52.322;10.232;2023-04-09T06:03:43;5.60;99.90
38090;DHT22;23904;52.322;10.232;2023-04-09T06:06:09;5.60;99.90
38090;DHT22;23904;52.322;10.232;2023-04-09T06:08:35;5.70;99.90
38090;DHT22;23904;52.322;10.232;2023-04-09T06:11:00;5.80;99.90
38090;DHT22;23904;52.322;10.232;2023-04-09T06:13:26;5.90;99.90
38090;DHT22;23904;52.322;10.232;2023-04-09T06:15:52;6.00;99.90
38090;DHT22;23904;52.322;10.232;2023-04-09T06:18:18;6.10;99.90
38090;DHT22;23904;52.322;10.232;2023-04-09T06:20:44;6.10;99.90
38090;DHT22;23904;52.322;10.232;2023-04-09T06:23:10;6.10;99.90
38090;DHT22;23904;52.322;10.232;2023-04-09T06:25:35;6.20;99.90
38090;DHT22;23904;52.322;10.232;2023-04-09T06:28:01;6.20;99.90
38090;DHT22;23904;52.322;10.232;2023-04-09T06:30:27;6.30;99.90
38090;DHT22;23904;52.322;10.232;2023-04-09T06:32:53;6.40;99.90
38090;DHT22;23904;52.322;10.232;2023-04-09T06:35:19;6.30;99.90
38090;DHT22;23904;52.322;10.232;2023-04-09T06:37:45;6.40;99.90
38090;DHT22;23904;52.322;10.232;2023-04-09T06:40:11;6.40;99.90
38090;DHT22;23904;52.322;10.232;2023-04-09T06:42:37;6.50;99.90
38090;DHT22;23904;52.322;10.232;2023-04-09T06:45:03;6.60;99.90
38090;DHT22;23904;52.322;10.232;2023-04-09T06:47:33;6.50;99.90
38090;DHT22;23904;52.322;10.232;2023-04-09T06:49:59;6.50;99.90
38090;DHT22;23904;52.322;10.232;2023-04-09T06:52:25;6.60;99.90
38090;DHT22;23904;52.322;10.232;2023-04-09T06:54:50;6.50;99.90
38090;DHT22;23904;52.322;10.232;2023-04-09T06:57:16;6.50;99.90
38090;DHT22;23904;52.322;10.232;2023-04-09T06:59:41;6.60;99.90
38090;DHT22;23904;52.322;10.232;2023-04-09T07:02:08;6.60;99.90
38090;DHT22;23904;52.322;10.232;2023-04-09T07:04:33;6.60;99.90
38090;DHT22;23904;52.322;10.232;2023-04-09T07:06:59;6.70;99.90
38090;DHT22;23904;52.322;10.232;2023-04-09T07:09:25;6.80;99.90
38090;DHT22;23904;52.322;10.232;2023-04-09T07:11:51;6.80;99.90
38090;DHT22;23904;52.322;10.232;2023-04-09T07:14:16;6.90;99.90
38090;DHT22;23904;52.322;10.232;2023-04-09T07:16:42;6.80;99.90
38090;DHT22;23904;52.322;10.232;2023-04-09T07:19:10;6.80;99.90
38090;DHT22;23904;52.322;10.232;2023-04-09T07:21:37;6.80;99.90
38090;DHT22;23904;52.322;10.232;2023-04-09T07:24:03;6.90;99.90
38090;DHT22;23904;52.322;10.232;2023-04-09T07:26:29;7.00;99.90
38090;DHT22;23904;52.322;10.232;2023-04-09T07:28:55;7.00;99.90
38090;DHT22;23904;52.322;10.232;2023-04-09T07:31:20;7.00;99.90
38090;DHT22;23904;52.322;10.232;2023-04-09T07:33:46;7.00;99.90
38090;DHT22;23904;52.322;10.232;2023-04-09T07:36:12;7.00;99.90
38090;DHT22;23904;52.322;10.232;2023-04-09T07:38:37;7.10;99.90
38090;DHT22;23904;52.322;10.232;2023-04-09T07:41:03;7.20;99.90
38090;DHT22;23904;52.322;10.232;2023-04-09T07:43:30;7.30;99.90
38090;DHT22;23904;52.322;10.232;2023-04-09T07:45:56;7.40;99.90
38090;DHT22;23904;52.322;10.232;2023-04-09T07:48:21;7.40;99.90
38090;DHT22;23904;52.322;10.232;2023-04-09T07:50:47;7.40;99.90
38090;DHT22;23904;52.322;10.232;2023-04-09T07:53:13;7.50;99.90
38090;DHT22;23904;52.322;10.232;2023-04-09T07:55:39;7.60;99.90
38090;DHT22;23904;52.322;10.232;2023-04-09T07:58:05;7.70;99.90
38090;DHT22;23904;52.322;10.232;2023-04-09T08:00:31;7.60;99.90
38090;DHT22;23904;52.322;10.232;2023-04-09T08:02:57;7.70;99.90
38090;DHT22;23904;52.322;10.232;2023-04-09T08:05:23;7.70;99.90
38090;DHT22;23904;52.322;10.232;2023-04-09T08:07:52;7.70;99.90
38090;DHT22;23904;52.322;10.232;2023-04-09T08:10:18;7.70;99.90
38090;DHT22;23904;52.322;10.232;2023-04-09T08:12:43;7.70;99.90
38090;DHT22;23904;52.322;10.232;2023-04-09T08:15:10;7.70;99.90
38090;DHT22;23904;52.322;10.232;2023-04-09T08:17:36;7.80;99.90
38090;DHT22;23904;52.322;10.232;2023-04-09T08:20:05;7.90;99.90
38090;DHT22;23904;52.322;10.232;2023-04-09T08:22:31;8.00;99.90
38090;DHT22;23904;52.322;10.232;2023-04-09T08:24:57;8.00;99.90
38090;DHT22;23904;52.322;10.232;2023-04-09T08:27:23;7.90;99.90
38090;DHT22;23904;52.322;10.232;2023-04-09T08:29:49;8.00;99.90
38090;DHT22;23904;52.322;10.232;2023-04-09T08:32:15;8.10;99.90
38090;DHT22;23904;52.322;10.232;2023-04-09T08:34:41;8.20;99.90
38090;DHT22;23904;52.322;10.232;2023-04-09T08:37:07;8.20;99.90
38090;DHT22;23904;52.322;10.232;2023-04-09T08:39:33;8.30;99.90
38090;DHT22;23904;52.322;10.232;2023-04-09T08:41:58;8.20;99.90
38090;DHT22;23904;52.322;10.232;2023-04-09T08:44:26;8.30;99.90
38090;DHT22;23904;52.322;10.232;2023-04-09T08:46:52;8.20;99.90
38090;DHT22;23904;52.322;10.232;2023-04-09T08:49:19;8.30;99.90
38090;DHT22;23904;52.322;10.232;2023-04-09T08:51:47;8.30;99.90
38090;DHT22;23904;52.322;10.232;2023-04-09T08:54:14;8.20;99.90
38090;DHT22;23904;52.322;10.232;2023-04-09T08:56:41;8.30;99.90
38090;DHT22;23904;52.322;10.232;2023-04-09T08:59:08;8.30;99.90
38090;DHT22;23904;52.322;10.232;2023-04-09T09:01:34;8.30;99.90
38090;DHT22;23904;52.322;10.232;2023-04-09T09:04:04;8.30;99.90
38090;DHT22;23904;52.322;10.232;2023-04-09T09:06:33;8.30;99.90
38090;DHT22;23904;52.322;10.232;2023-04-09T09:09:07;8.20;99.90
38090;DHT22;23904;52.322;10.232;2023-04-09T09:11:38;8.20;99.90
38090;DHT22;23904;52.322;10.232;2023-04-09T09:14:12;8.20;99.90
38090;DHT22;23904;52.322;10.232;2023-04-09T09:16:41;8.10;99.90
38090;DHT22;23904;52.322;10.232;2023-04-09T09:19:27;8.10;99.90
38090;DHT22;23904;52.322;10.232;2023-04-09T09:22:05;8.10;99.90
38090;DHT22;23904;52.322;10.232;2023-04-09T09:24:50;8.00;99.90
38090;DHT22;23904;52.322;10.232;2023-04-09T09:27:36;8.10;99.90
38090;DHT22;23904;52.322;10.232;2023-04-09T09:30:05;8.00;99.90
38090;DHT22;23904;52.322;10.232;2023-04-09T09:32:33;8.10;99.90
38090;DHT22;23904;52.322;10.232;2023-04-09T09:35:05;8.20;99.90
38090;DHT22;23904;52.322;10.232;2023-04-09T09:37:32;8.30;99.90
38090;DHT22;23904;52.322;10.232;2023-04-09T09:39:58;8.30;99.90
38090;DHT22;23904;52.322;10.232;2023-04-09T09:42:25;8.30;99.90
38090;DHT22;23904;52.322;10.232;2023-04-09T09:44:53;8.40;99.90
38090;DHT22;23904;52.322;10.232;2023-04-09T09:47:21;8.50;99.90
38090;DHT22;23904;52.322;10.232;2023-04-09T09:49:48;8.40;99.90
38090;DHT22;23904;52.322;10.232;2023-04-09T09:52:15;8.50;99.90
38090;DHT22;23904;52.322;10.232;2023-04-09T09:54:47;8.50;99.90
38090;DHT22;23904;52.322;10.232;2023-04-09T09:57:18;8.60;99.90
38090;DHT22;23904;52.322;10.232;2023-04-09T09:59:55;8.60;99.90
38090;DHT22;23904;52.322;10.232;2023-04-09T10:02:27;8.80;99.90
38090;DHT22;23904;52.322;10.232;2023-04-09T10:04:59;8.90;99.90
38090;DHT22;23904;52.322;10.232;2023-04-09T10:07:26;9.20;99.90
38090;DHT22;23904;52.322;10.232;2023-04-09T10:09:53;9.30;99.90
38090;DHT22;23904;52.322;10.232;2023-04-09T10:12:21;9.30;99.90
38090;DHT22;23904;52.322;10.232;2023-04-09T10:14:54;9.30;99.90
38090;DHT22;23904;52.322;10.232;2023-04-09T10:17:20;9.20;99.90
38090;DHT22;23904;52.322;10.232;2023-04-09T10:19:57;9.10;99.90
38090;DHT22;23904;52.322;10.232;2023-04-09T10:22:32;9.10;99.90
38090;DHT22;23904;52.322;10.232;2023-04-09T10:24:59;9.10;99.90
38090;DHT22;23904;52.322;10.232;2023-04-09T10:27:25;9.00;99.90
38090;DHT22;23904;52.322;10.232;2023-04-09T10:29:52;9.00;99.90
38090;DHT22;23904;52.322;10.232;2023-04-09T10:32:21;9.10;99.90
38090;DHT22;23904;52.322;10.232;2023-04-09T10:34:50;9.30;99.90
38090;DHT22;23904;52.322;10.232;2023-04-09T10:37:24;10.40;99.90
38090;DHT22;23904;52.322;10.232;2023-04-09T10:39:51;12.50;99.90
38090;DHT22;23904;52.322;10.232;2023-04-09T10:42:19;13.80;99.90
38090;DHT22;23904;52.322;10.232;2023-04-09T10:47:33;14.50;99.90
38090;DHT22;23904;52.322;10.232;2023-04-09T10:50:27;14.10;99.90
38090;DHT22;23904;52.322;10.232;2023-04-09T10:52:57;13.80;99.90
38090;DHT22;23904;52.322;10.232;2023-04-09T10:55:35;12.60;99.90
38090;DHT22;23904;52.322;10.232;2023-04-09T10:58:05;11.90;99.90
38090;DHT22;23904;52.322;10.232;2023-04-09T11:00:36;11.50;99.90
38090;DHT22;23904;52.322;10.232;2023-04-09T11:03:24;11.40;99.90
38090;DHT22;23904;52.322;10.232;2023-04-09T11:05:56;11.80;99.90
38090;DHT22;23904;52.322;10.232;2023-04-09T11:08:27;13.80;99.90
38090;DHT22;23904;52.322;10.232;2023-04-09T11:10:54;14.80;99.90
38090;DHT22;23904;52.322;10.232;2023-04-09T11:13:23;17.20;96.40
38090;DHT22;23904;52.322;10.232;2023-04-09T11:15:49;19.00;92.00
38090;DHT22;23904;52.322;10.232;2023-04-09T11:18:20;19.70;89.00
38090;DHT22;23904;52.322;10.232;2023-04-09T11:20:47;19.70;83.20
38090;DHT22;23904;52.322;10.232;2023-04-09T11:23:15;18.10;86.10
38090;DHT22;23904;52.322;10.232;2023-04-09T11:25:42;18.30;85.40
38090;DHT22;23904;52.322;10.232;2023-04-09T11:28:13;18.10;85.70
38090;DHT22;23904;52.322;10.232;2023-04-09T11:30:38;18.10;85.90
38090;DHT22;23904;52.322;10.232;2023-04-09T11:33:04;18.40;85.40
38090;DHT22;23904;52.322;10.232;2023-04-09T11:35:33;18.10;85.10
38090;DHT22;23904;52.322;10.232;2023-04-09T11:38:05;17.30;86.30
38090;DHT22;23904;52.322;10.232;2023-04-09T11:40:31;16.30;89.70
38090;DHT22;23904;52.322;10.232;2023-04-09T11:42:57;15.50;90.30
38090;DHT22;23904;52.322;10.232;2023-04-09T11:45:24;15.00;91.40
38090;DHT22;23904;52.322;10.232;2023-04-09T11:47:51;14.40;93.20
38090;DHT22;23904;52.322;10.232;2023-04-09T11:50:17;13.90;94.90
38090;DHT22;23904;52.322;10.232;2023-04-09T11:52:44;13.60;95.70
38090;DHT22;23904;52.322;10.232;2023-04-09T11:55:11;13.30;96.00
38090;DHT22;23904;52.322;10.232;2023-04-09T11:57:47;13.00;96.50
38090;DHT22;23904;52.322;10.232;2023-04-09T12:00:14;12.70;97.30
38090;DHT22;23904;52.322;10.232;2023-04-09T12:02:43;12.40;97.60
38090;DHT22;23904;52.322;10.232;2023-04-09T12:05:12;12.30;97.60
38090;DHT22;23904;52.322;10.232;2023-04-09T12:07:46;12.20;98.20
38090;DHT22;23904;52.322;10.232;2023-04-09T12:10:11;12.10;98.80
38090;DHT22;23904;52.322;10.232;2023-04-09T12:12:39;11.90;99.50
38090;DHT22;23904;52.322;10.232;2023-04-09T12:15:17;11.90;99.10
38090;DHT22;23904;52.322;10.232;2023-04-09T12:17:53;11.90;99.50
38090;DHT22;23904;52.322;10.232;2023-04-09T12:20:36;11.80;99.70
38090;DHT22;23904;52.322;10.232;2023-04-09T12:23:04;12.10;99.90
38090;DHT22;23904;52.322;10.232;2023-04-09T12:25:32;12.30;99.90
38090;DHT22;23904;52.322;10.232;2023-04-09T12:28:00;12.70;99.30
38090;DHT22;23904;52.322;10.232;2023-04-09T12:30:26;12.90;99.20
38090;DHT22;23904;52.322;10.232;2023-04-09T12:32:52;13.30;99.20
38090;DHT22;23904;52.322;10.232;2023-04-09T12:35:18;13.80;97.50
38090;DHT22;23904;52.322;10.232;2023-04-09T12:37:48;14.20;96.60
38090;DHT22;23904;52.322;10.232;2023-04-09T12:40:14;14.50;96.80
38090;DHT22;23904;52.322;10.232;2023-04-09T12:42:40;15.00;95.60
38090;DHT22;23904;52.322;10.232;2023-04-09T12:45:09;14.90;93.90
38090;DHT22;23904;52.322;10.232;2023-04-09T12:47:37;14.50;95.30
38090;DHT22;23904;52.322;10.232;2023-04-09T12:50:07;14.40;94.00
38090;DHT22;23904;52.322;10.232;2023-04-09T12:52:34;14.20;95.60
38090;DHT22;23904;52.322;10.232;2023-04-09T12:55:00;14.20;95.80
38090;DHT22;23904;52.322;10.232;2023-04-09T12:57:28;13.80;96.70
38090;DHT22;23904;52.322;10.232;2023-04-09T12:59:53;14.30;95.70
38090;DHT22;23904;52.322;10.232;2023-04-09T13:02:20;14.60;95.70
38090;DHT22;23904;52.322;10.232;2023-04-09T13:04:47;15.00;93.80
38090;DHT22;23904;52.322;10.232;2023-04-09T13:07:13;15.70;92.80
38090;DHT22;23904;52.322;10.232;2023-04-09T13:09:41;15.60;93.20
38090;DHT22;23904;52.322;10.232;2023-04-09T13:12:06;15.40;92.10
38090;DHT22;23904;52.322;10.232;2023-04-09T13:14:32;15.10;92.70
38090;DHT22;23904;52.322;10.232;2023-04-09T13:16:58;15.70;92.40
38090;DHT22;23904;52.322;10.232;2023-04-09T13:19:23;16.30;91.50
38090;DHT22;23904;52.322;10.232;2023-04-09T13:21:49;17.00;90.00
38090;DHT22;23904;52.322;10.232;2023-04-09T13:24:14;17.10;88.20
38090;DHT22;23904;52.322;10.232;2023-04-09T13:26:40;16.70;88.70
38090;DHT22;23904;52.322;10.232;2023-04-09T13:29:06;16.70;88.60
38090;DHT22;23904;52.322;10.232;2023-04-09T13:31:35;16.40;88.20
38090;DHT22;23904;52.322;10.232;2023-04-09T13:34:01;16.00;87.40
38090;DHT22;23904;52.322;10.232;2023-04-09T13:36:27;15.70;89.30
38090;DHT22;23904;52.322;10.232;2023-04-09T13:38:53;15.30;89.50
38090;DHT22;23904;52.322;10.232;2023-04-09T13:41:20;15.20;88.80
38090;DHT22;23904;52.322;10.232;2023-04-09T13:43:52;14.90;90.00
38090;DHT22;23904;52.322;10.232;2023-04-09T13:46:17;14.80;90.50
38090;DHT22;23904;52.322;10.232;2023-04-09T13:48:43;14.90;91.10
38090;DHT22;23904;52.322;10.232;2023-04-09T13:51:08;14.80;92.00
38090;DHT22;23904;52.322;10.232;2023-04-09T13:53:34;14.70;91.50
38090;DHT22;23904;52.322;10.232;2023-04-09T13:55:59;14.80;90.80
38090;DHT22;23904;52.322;10.232;2023-04-09T13:58:25;14.80;90.60
38090;DHT22;23904;52.322;10.232;2023-04-09T14:00:51;14.60;90.80
38090;DHT22;23904;52.322;10.232;2023-04-09T14:03:16;14.50;91.20
38090;DHT22;23904;52.322;10.232;2023-04-09T14:05:42;14.40;92.20
38090;DHT22;23904;52.322;10.232;2023-04-09T14:08:10;14.50;92.50
38090;DHT22;23904;52.322;10.232;2023-04-09T14:10:36;14.70;92.10
38090;DHT22;23904;52.322;10.232;2023-04-09T14:13:01;14.80;91.90
38090;DHT22;23904;52.322;10.232;2023-04-09T14:15:31;14.90;91.40
38090;DHT22;23904;52.322;10.232;2023-04-09T14:17:56;15.00;90.80
38090;DHT22;23904;52.322;10.232;2023-04-09T14:20:22;15.20;90.60
38090;DHT22;23904;52.322;10.232;2023-04-09T14:22:49;15.20;90.80
38090;DHT22;23904;52.322;10.232;2023-04-09T14:25:15;15.10;90.40
38090;DHT22;23904;52.322;10.232;2023-04-09T14:27:41;15.20;90.70
38090;DHT22;23904;52.322;10.232;2023-04-09T14:30:10;15.10;91.60
38090;DHT22;23904;52.322;10.232;2023-04-09T14:32:36;15.20;90.80
38090;DHT22;23904;52.322;10.232;2023-04-09T14:35:02;15.00;90.20
38090;DHT22;23904;52.322;10.232;2023-04-09T14:37:28;14.70;90.90
38090;DHT22;23904;52.322;10.232;2023-04-09T14:39:53;14.70;90.60
38090;DHT22;23904;52.322;10.232;2023-04-09T14:42:19;14.70;90.90
38090;DHT22;23904;52.322;10.232;2023-04-09T14:44:45;14.90;90.30
38090;DHT22;23904;52.322;10.232;2023-04-09T14:47:10;15.00;90.90
38090;DHT22;23904;52.322;10.232;2023-04-09T14:49:36;14.90;92.00
38090;DHT22;23904;52.322;10.232;2023-04-09T14:52:01;14.90;91.30
38090;DHT22;23904;52.322;10.232;2023-04-09T14:54:27;14.90;91.30
38090;DHT22;23904;52.322;10.232;2023-04-09T14:56:54;15.10;89.70
38090;DHT22;23904;52.322;10.232;2023-04-09T14:59:22;15.00;91.00
38090;DHT22;23904;52.322;10.232;2023-04-09T15:01:47;15.10;90.70
38090;DHT22;23904;52.322;10.232;2023-04-09T15:04:12;14.90;90.50
38090;DHT22;23904;52.322;10.232;2023-04-09T15:06:38;15.10;90.50
38090;DHT22;23904;52.322;10.232;2023-04-09T15:09:04;15.10;90.80
38090;DHT22;23904;52.322;10.232;2023-04-09T15:11:29;14.90;91.40
38090;DHT22;23904;52.322;10.232;2023-04-09T15:13:55;14.80;91.20
38090;DHT22;23904;52.322;10.232;2023-04-09T15:16:26;14.70;91.50
38090;DHT22;23904;52.322;10.232;2023-04-09T15:18:53;14.60;91.30
38090;DHT22;23904;52.322;10.232;2023-04-09T15:21:20;14.50;91.50
38090;DHT22;23904;52.322;10.232;2023-04-09T15:23:48;14.50;91.40
38090;DHT22;23904;52.322;10.232;2023-04-09T15:26:15;14.60;90.70
38090;DHT22;23904;52.322;10.232;2023-04-09T15:28:41;14.30;91.40
38090;DHT22;23904;52.322;10.232;2023-04-09T15:31:06;14.30;91.70
38090;DHT22;23904;52.322;10.232;2023-04-09T15:33:32;14.10;92.40
38090;DHT22;23904;52.322;10.232;2023-04-09T15:35:58;14.00;92.40
38090;DHT22;23904;52.322;10.232;2023-04-09T15:38:24;13.90;92.50
38090;DHT22;23904;52.322;10.232;2023-04-09T15:40:50;13.80;92.50